Time;durP1;ratioP1;P1;durP2;ratioP2;P2;SDS_P1;SDS_P2;PMS_P1;PMS_P2;Temp;Humidity;BMP_temperature;BMP_pressure;BME280_temperature;BME280_humidity;BME280_pressure;Samples;Min_cycle;Max_cycle;Signal;HPM_P1;HPM_P2
2022/09/07 00:01:27;;;;;;;8.73;6.47;;;19.30;99.80;;;;;;5015180;28;20045;-74
2022/09/07 00:03:56;;;;;;;8.00;6.60;;;19.30;99.90;;;;;;5015666;28;20042;-76
2022/09/07 00:06:23;;;;;;;8.70;6.47;;;19.20;99.90;;;;;;5015437;28;20115;-76
2022/09/07 00:08:48;;;;;;;9.57;7.68;;;19.20;99.90;;;;;;5015155;28;20042;-76
2022/09/07 00:11:17;;;;;;;11.43;6.30;;;19.20;99.90;;;;;;5015569;28;20045;-74
2022/09/07 00:13:45;;;;;;;7.95;7.13;;;19.10;99.90;;;;;;5015416;28;20042;-76
2022/09/07 00:16:17;;;;;;;10.68;7.18;;;19.10;99.90;;;;;;5013941;28;20046;-76
2022/09/07 00:18:44;;;;;;;10.15;6.72;;;19.10;99.90;;;;;;5015443;28;20061;-76
2022/09/07 00:21:10;;;;;;;12.00;6.97;;;19.00;99.90;;;;;;5015351;28;20049;-76
2022/09/07 00:23:38;;;;;;;9.70;7.15;;;18.90;99.90;;;;;;5015525;28;20050;-75
2022/09/07 00:26:12;;;;;;;12.45;7.88;;;18.90;99.90;;;;;;5015181;28;20041;-77
2022/09/07 00:28:38;;;;;;;8.27;7.32;;;18.90;99.90;;;;;;5015304;28;20124;-76
2022/09/07 00:31:09;;;;;;;8.70;6.78;;;18.80;99.90;;;;;;5015043;28;20493;-75
2022/09/07 00:33:35;;;;;;;9.02;8.13;;;18.80;99.90;;;;;;5014930;28;20057;-75
2022/09/07 00:36:01;;;;;;;13.85;7.45;;;18.70;99.90;;;;;;5014947;28;20041;-75
2022/09/07 00:38:27;;;;;;;11.88;7.28;;;18.70;99.90;;;;;;5014963;28;20050;-75
2022/09/07 00:40:53;;;;;;;12.25;7.45;;;18.70;99.90;;;;;;5014911;28;20073;-76
2022/09/07 00:43:43;;;;;;;9.38;7.93;;;18.70;99.90;;;;;;5014796;28;20057;-76
2022/09/07 00:46:16;;;;;;;8.65;6.82;;;18.70;99.90;;;;;;5015309;28;20053;-75
2022/09/07 00:48:51;;;;;;;11.32;8.00;;;18.80;99.90;;;;;;5014550;28;20522;-76
2022/09/07 00:51:24;;;;;;;10.05;7.93;;;18.80;99.90;;;;;;5015384;28;20045;-76
2022/09/07 00:53:57;;;;;;;9.75;7.43;;;18.90;99.90;;;;;;5015256;28;20045;-76
2022/09/07 00:56:25;;;;;;;8.38;7.07;;;18.80;99.90;;;;;;5014863;28;20383;-76
2022/09/07 00:58:51;;;;;;;11.05;8.20;;;18.80;99.90;;;;;;5014598;28;20046;-77
2022/09/07 01:01:17;;;;;;;9.90;8.25;;;18.80;99.90;;;;;;4997717;28;20452;-76
2022/09/07 01:03:47;;;;;;;9.55;7.57;;;18.70;99.90;;;;;;5014649;28;20048;-76
2022/09/07 01:06:19;;;;;;;9.50;7.45;;;18.70;99.90;;;;;;4997529;28;20417;-77
2022/09/07 01:08:48;;;;;;;12.13;7.47;;;18.70;99.90;;;;;;5014207;28;20611;-76
2022/09/07 01:11:15;;;;;;;8.23;6.63;;;18.60;99.90;;;;;;5014357;28;20053;-75
2022/09/07 01:13:43;;;;;;;10.93;8.85;;;18.60;99.90;;;;;;5014675;28;20171;-78
2022/09/07 01:16:21;;;;;;;9.02;7.53;;;18.60;99.90;;;;;;5014637;28;20046;-76
2022/09/07 01:19:04;;;;;;;8.95;7.53;;;18.60;99.90;;;;;;5014583;28;20076;-75
2022/09/07 01:22:04;;;;;;;11.20;8.60;;;18.50;99.90;;;;;;5014688;28;20042;-78
2022/09/07 01:24:52;;;;;;;9.10;6.47;;;18.50;99.90;;;;;;5014679;28;20054;-77
2022/09/07 01:27:36;;;;;;;11.10;8.55;;;18.40;99.90;;;;;;4996476;28;20053;-79
2022/09/07 01:30:07;;;;;;;11.10;8.50;;;18.40;99.90;;;;;;5014052;28;20064;-80
2022/09/07 01:32:44;;;;;;;13.40;8.48;;;18.30;99.90;;;;;;5013886;28;20056;-77
2022/09/07 01:35:39;;;;;;;9.48;7.75;;;18.30;99.90;;;;;;5014348;28;20382;-80
2022/09/07 01:38:30;;;;;;;12.93;8.68;;;18.20;99.90;;;;;;5012316;28;20136;-75
2022/09/07 01:41:10;;;;;;;14.93;9.43;;;18.10;99.90;;;;;;5013935;28;20049;-79
2022/09/07 01:43:49;;;;;;;12.35;9.70;;;18.10;99.90;;;;;;5014391;28;20042;-80
2022/09/07 01:46:33;;;;;;;15.05;9.52;;;18.10;99.90;;;;;;5014343;28;20057;-78
2022/09/07 01:49:08;;;;;;;11.43;8.40;;;18.00;99.90;;;;;;5013688;28;20045;-76
2022/09/07 01:51:41;;;;;;;11.05;9.63;;;18.10;99.90;;;;;;5013405;28;20470;-77
2022/09/07 01:54:31;;;;;;;13.90;8.77;;;18.00;99.90;;;;;;5013523;28;20068;-74
2022/09/07 01:57:03;;;;;;;11.60;10.20;;;18.00;99.90;;;;;;5013514;28;20121;-74
2022/09/07 01:59:54;;;;;;;16.15;10.57;;;18.00;99.90;;;;;;5013447;28;20085;-73
2022/09/07 02:02:25;;;;;;;13.30;10.02;;;18.10;99.90;;;;;;4996293;28;20053;-72
2022/09/07 02:04:58;;;;;;;13.00;10.20;;;18.10;99.90;;;;;;5013620;28;20042;-72
2022/09/07 02:07:34;;;;;;;12.93;9.68;;;18.10;99.90;;;;;;5013522;28;20049;-72
2022/09/07 02:10:25;;;;;;;16.52;11.00;;;18.00;99.90;;;;;;5013586;28;20049;-72
2022/09/07 02:13:03;;;;;;;10.80;8.65;;;18.00;99.90;;;;;;5006276;28;20054;-71
2022/09/07 02:15:52;;;;;;;18.58;9.40;;;18.00;99.90;;;;;;5013277;28;20046;-72
2022/09/07 02:18:20;;;;;;;10.05;7.95;;;17.90;99.90;;;;;;4993786;28;20568;-72
2022/09/07 02:20:50;;;;;;;11.95;7.72;;;17.90;99.90;;;;;;5013189;28;20052;-71
2022/09/07 02:23:23;;;;;;;11.25;9.27;;;17.80;99.90;;;;;;5013042;28;20050;-72
2022/09/07 02:26:16;;;;;;;9.60;7.07;;;17.80;99.90;;;;;;5013143;28;20518;-72
2022/09/07 02:28:42;;;;;;;13.23;7.85;;;17.80;99.90;;;;;;5013731;28;20057;-72
2022/09/07 02:31:07;;;;;;;9.13;6.55;;;17.80;99.90;;;;;;5012983;28;20050;-73
2022/09/07 02:33:33;;;;;;;7.55;6.85;;;17.70;99.90;;;;;;5013663;28;20056;-72
2022/09/07 02:36:00;;;;;;;8.73;6.65;;;17.60;99.90;;;;;;5013541;28;20499;-73
2022/09/07 02:38:26;;;;;;;7.35;6.07;;;17.60;99.90;;;;;;5012498;28;20128;-73
2022/09/07 02:40:53;;;;;;;7.60;5.32;;;17.50;99.90;;;;;;5012908;28;20092;-73
2022/09/07 02:43:20;;;;;;;8.30;5.88;;;17.50;99.90;;;;;;5012878;28;20038;-72
2022/09/07 02:46:08;;;;;;;7.35;6.13;;;17.50;99.90;;;;;;5013187;28;20049;-72
2022/09/07 02:48:55;;;;;;;6.80;5.25;;;17.60;99.90;;;;;;5012805;28;20049;-72
2022/09/07 02:51:54;;;;;;;5.93;4.78;;;17.60;99.90;;;;;;5012983;28;20057;-73
2022/09/07 02:54:23;;;;;;;5.60;4.80;;;17.50;99.90;;;;;;5012531;28;20046;-72
2022/09/07 02:57:32;;;;;;;7.32;6.20;;;17.50;99.90;;;;;;5012655;28;20046;-73
2022/09/07 03:00:10;;;;;;;7.60;6.00;;;17.50;99.90;;;;;;5013068;28;20057;-73
2022/09/07 03:02:51;;;;;;;8.20;5.53;;;17.50;99.90;;;;;;5012703;28;20068;-73
2022/09/07 03:05:43;;;;;;;6.45;4.53;;;17.10;99.90;;;;;;4995276;28;20417;-73
2022/09/07 03:08:28;;;;;;;6.15;5.05;;;17.50;99.90;;;;;;5013076;28;20462;-73
2022/09/07 03:10:54;;;;;;;7.00;5.32;;;17.60;99.90;;;;;;5012634;28;20048;-73
2022/09/07 03:13:23;;;;;;;6.63;5.25;;;17.60;99.90;;;;;;5012556;28;20078;-73
2022/09/07 03:15:49;;;;;;;5.72;5.13;;;17.70;99.90;;;;;;5012536;28;20041;-73
2022/09/07 03:18:15;;;;;;;6.65;5.65;;;17.70;99.90;;;;;;5012579;28;20056;-73
2022/09/07 03:20:40;;;;;;;6.53;5.63;;;17.70;99.90;;;;;;5012423;28;20049;-73
2022/09/07 03:23:06;;;;;;;6.65;5.60;;;17.70;99.90;;;;;;5012907;28;20050;-73
2022/09/07 03:25:32;;;;;;;7.35;5.57;;;17.60;99.90;;;;;;5012301;28;20398;-73
2022/09/07 03:27:57;;;;;;;7.60;5.25;;;17.50;99.90;;;;;;5011193;28;20057;-73
2022/09/07 03:30:23;;;;;;;11.80;5.75;;;17.50;99.90;;;;;;5012831;28;20050;-73
2022/09/07 03:32:49;;;;;;;11.80;6.28;;;17.60;99.90;;;;;;5012312;28;20046;-73
2022/09/07 03:35:15;;;;;;;7.80;5.28;;;17.60;99.90;;;;;;5012538;28;20071;-73
2022/09/07 03:37:41;;;;;;;6.60;5.90;;;17.50;99.90;;;;;;5012301;28;20042;-73
2022/09/07 03:40:10;;;;;;;8.32;5.75;;;17.60;99.90;;;;;;5012583;28;20473;-73
2022/09/07 03:42:36;;;;;;;6.13;5.53;;;17.60;99.90;;;;;;5012321;28;20050;-73
2022/09/07 03:45:03;;;;;;;8.82;6.07;;;17.60;99.90;;;;;;5012823;28;20108;-73
2022/09/07 03:47:28;;;;;;;8.38;6.97;;;17.50;99.90;;;;;;5012506;28;20041;-73
2022/09/07 03:49:54;;;;;;;7.50;6.50;;;17.50;99.90;;;;;;4997191;28;20136;-74
2022/09/07 03:52:20;;;;;;;8.65;6.50;;;17.40;99.90;;;;;;5015716;28;20050;-73
2022/09/07 03:54:46;;;;;;;9.63;8.63;;;17.40;99.90;;;;;;5016016;28;20053;-74
2022/09/07 03:57:12;;;;;;;11.80;8.00;;;17.30;99.90;;;;;;5015759;28;20046;-74
2022/09/07 03:59:37;;;;;;;10.85;7.68;;;17.30;99.90;;;;;;5015713;28;20042;-73
2022/09/07 04:02:03;;;;;;;9.73;7.88;;;17.20;99.90;;;;;;5016064;28;20053;-73
2022/09/07 04:04:29;;;;;;;11.07;8.45;;;17.20;99.90;;;;;;5015596;28;20060;-73
2022/09/07 04:06:55;;;;;;;11.95;8.13;;;17.10;99.90;;;;;;5015662;28;20085;-73
2022/09/07 04:09:21;;;;;;;10.65;8.13;;;17.10;99.90;;;;;;5015845;28;20050;-74
2022/09/07 04:11:47;;;;;;;13.77;9.63;;;17.10;99.90;;;;;;5015469;28;20507;-73
2022/09/07 04:14:13;;;;;;;10.85;9.30;;;17.10;99.90;;;;;;5016127;28;20125;-73
2022/09/07 04:16:39;;;;;;;13.60;9.98;;;17.10;99.90;;;;;;5015933;28;20495;-73
2022/09/07 04:19:04;;;;;;;13.48;10.50;;;17.20;99.90;;;;;;5015297;28;20046;-74
2022/09/07 04:21:32;;;;;;;15.25;11.68;;;17.20;99.90;;;;;;5015739;28;20042;-74
2022/09/07 04:23:58;;;;;;;14.43;11.05;;;17.20;99.90;;;;;;5015702;28;20085;-74
2022/09/07 04:26:30;;;;;;;12.50;10.00;;;17.20;99.90;;;;;;5015248;28;20050;-74
2022/09/07 04:28:57;;;;;;;15.35;11.73;;;17.20;99.90;;;;;;5015231;28;20120;-74
2022/09/07 04:31:23;;;;;;;13.45;10.55;;;17.20;99.90;;;;;;5015160;28;20148;-73
2022/09/07 04:33:50;;;;;;;14.27;11.02;;;17.10;99.90;;;;;;5015006;28;20099;-73
2022/09/07 04:36:17;;;;;;;15.18;10.43;;;17.10;99.90;;;;;;5015365;28;20054;-74
2022/09/07 04:38:43;;;;;;;16.08;11.10;;;17.10;99.90;;;;;;5014979;28;20053;-74
2022/09/07 04:41:12;;;;;;;13.05;9.88;;;17.10;99.90;;;;;;5014907;28;20042;-74
2022/09/07 04:43:39;;;;;;;16.92;9.73;;;17.20;99.90;;;;;;5014761;28;20160;-73
2022/09/07 04:46:06;;;;;;;13.75;10.05;;;17.10;99.90;;;;;;5015241;28;20125;-74
2022/09/07 04:48:32;;;;;;;16.77;11.32;;;17.10;99.90;;;;;;5014844;28;20085;-73
2022/09/07 04:51:08;;;;;;;13.60;10.82;;;17.10;99.90;;;;;;5014600;28;20085;-74
2022/09/07 04:53:36;;;;;;;14.57;11.75;;;17.10;99.90;;;;;;5014920;28;20125;-73
2022/09/07 04:56:02;;;;;;;16.23;10.68;;;17.10;99.90;;;;;;5014719;28;20042;-74
2022/09/07 04:58:28;;;;;;;13.65;11.43;;;17.10;99.90;;;;;;5014501;28;20108;-73
2022/09/07 05:00:54;;;;;;;13.52;11.07;;;17.20;99.90;;;;;;5013783;28;20046;-74
2022/09/07 05:03:20;;;;;;;16.30;11.90;;;17.20;99.90;;;;;;5014544;28;20143;-73
2022/09/07 05:05:46;;;;;;;16.75;12.20;;;17.10;99.90;;;;;;5014792;28;20125;-74
2022/09/07 05:08:12;;;;;;;11.02;9.05;;;17.10;99.90;;;;;;5014161;28;20081;-74
2022/09/07 05:10:38;;;;;;;15.60;13.02;;;17.10;99.90;;;;;;5014678;28;20041;-71
2022/09/07 05:13:03;;;;;;;14.75;12.35;;;17.10;99.90;;;;;;5014045;28;20133;-71
2022/09/07 05:15:30;;;;;;;13.40;9.68;;;17.10;99.90;;;;;;5014121;28;20146;-72
2022/09/07 05:17:58;;;;;;;16.33;12.10;;;17.10;99.90;;;;;;5014389;28;20046;-73
2022/09/07 05:20:24;;;;;;;15.75;11.13;;;17.10;99.90;;;;;;5014077;28;20492;-74
2022/09/07 05:22:58;;;;;;;13.52;11.05;;;17.10;99.90;;;;;;5014333;28;20054;-75
2022/09/07 05:25:26;;;;;;;17.08;13.13;;;17.10;99.90;;;;;;5014075;28;20061;-74
2022/09/07 05:27:52;;;;;;;12.60;11.20;;;17.20;99.90;;;;;;5014141;28;20053;-74
2022/09/07 05:30:18;;;;;;;16.52;11.98;;;17.20;99.90;;;;;;5013791;28;20088;-74
2022/09/07 05:32:45;;;;;;;16.30;11.27;;;17.30;99.90;;;;;;5013712;28;20042;-74
2022/09/07 05:35:11;;;;;;;18.00;14.07;;;17.30;99.90;;;;;;5013353;28;20494;-74
2022/09/07 05:37:37;;;;;;;23.50;16.48;;;17.30;99.90;;;;;;5013461;28;20045;-74
2022/09/07 05:40:03;;;;;;;21.90;15.25;;;17.30;99.90;;;;;;5013529;28;20539;-74
2022/09/07 05:42:30;;;;;;;23.23;16.92;;;17.30;99.90;;;;;;5013416;28;20164;-74
2022/09/07 05:44:56;;;;;;;20.95;16.10;;;17.30;99.90;;;;;;5013257;28;20064;-74
2022/09/07 05:47:22;;;;;;;21.38;15.43;;;17.30;99.90;;;;;;5013824;28;20081;-74
2022/09/07 05:49:47;;;;;;;18.40;14.48;;;17.30;99.90;;;;;;5013899;28;20425;-74
2022/09/07 05:52:14;;;;;;;18.25;12.85;;;17.20;99.90;;;;;;4996029;28;20365;-74
2022/09/07 05:54:39;;;;;;;16.60;13.60;;;17.20;99.90;;;;;;5013185;28;20089;-74
2022/09/07 05:57:06;;;;;;;19.92;14.15;;;17.20;99.90;;;;;;5013074;28;20038;-74
2022/09/07 05:59:32;;;;;;;16.98;13.32;;;17.10;99.90;;;;;;5013172;28;20053;-81
2022/09/07 06:01:58;;;;;;;19.52;14.82;;;17.10;99.90;;;;;;5013243;28;20104;-80
2022/09/07 06:04:24;;;;;;;20.17;15.20;;;17.10;99.90;;;;;;5013152;28;20050;-80
2022/09/07 06:06:49;;;;;;;18.95;14.77;;;17.10;99.90;;;;;;5013324;28;20507;-77
2022/09/07 06:09:15;;;;;;;22.70;15.43;;;17.10;99.90;;;;;;5013010;28;20573;-80
2022/09/07 06:11:41;;;;;;;20.55;15.85;;;17.10;99.90;;;;;;5013102;28;20470;-80
2022/09/07 06:14:07;;;;;;;15.60;11.65;;;17.20;99.90;;;;;;4995550;28;20053;-80
2022/09/07 06:16:33;;;;;;;20.17;15.43;;;17.30;99.90;;;;;;5013198;28;20148;-79
2022/09/07 06:19:05;;;;;;;19.90;14.60;;;17.40;99.90;;;;;;5012862;28;20121;-81
2022/09/07 06:21:35;;;;;;;22.50;15.65;;;17.50;99.90;;;;;;5013455;28;20054;-81
2022/09/07 06:24:01;;;;;;;20.02;15.70;;;17.50;99.90;;;;;;4996098;28;20089;-78
2022/09/07 06:26:27;;;;;;;20.17;15.15;;;17.50;99.90;;;;;;5012714;28;20423;-81
2022/09/07 06:28:52;;;;;;;17.75;14.93;;;17.60;99.90;;;;;;4995673;28;20038;-82
2022/09/07 06:31:20;;;;;;;16.10;13.68;;;17.60;99.90;;;;;;5012713;28;20056;-80
2022/09/07 06:33:47;;;;;;;19.33;14.38;;;17.60;99.90;;;;;;5012671;28;20501;-81
2022/09/07 06:36:14;;;;;;;21.98;15.13;;;17.70;99.90;;;;;;4996029;28;20129;-83
2022/09/07 06:38:40;;;;;;;16.60;13.07;;;17.70;99.90;;;;;;4995036;28;20519;-84
2022/09/07 06:41:12;;;;;;;18.95;15.45;;;17.70;99.90;;;;;;4995569;28;20052;-82
2022/09/07 06:43:38;;;;;;;19.98;14.77;;;17.80;99.90;;;;;;4979356;28;20058;-82
2022/09/07 06:46:05;;;;;;;21.75;15.45;;;17.90;99.90;;;;;;4995363;28;20076;-82
2022/09/07 06:48:31;;;;;;;20.00;14.52;;;18.00;99.90;;;;;;4995420;28;20056;-83
2022/09/07 06:51:15;;;;;;;20.98;15.60;;;18.10;99.90;;;;;;5012312;28;20050;-82
2022/09/07 06:53:41;;;;;;;20.45;14.95;;;18.10;99.90;;;;;;4995139;28;20046;-81
2022/09/07 06:56:10;;;;;;;21.40;15.00;;;18.10;99.90;;;;;;5012439;28;20065;-82
2022/09/07 06:58:36;;;;;;;16.73;14.52;;;18.20;99.90;;;;;;5012041;28;20054;-83
2022/09/07 07:01:16;;;;;;;17.88;13.77;;;18.20;99.90;;;;;;4995067;28;20050;-82
2022/09/07 07:03:42;;;;;;;17.50;13.63;;;18.30;99.90;;;;;;4995051;28;20454;-82
2022/09/07 07:06:09;;;;;;;20.13;14.93;;;18.30;99.90;;;;;;5012071;28;20534;-81
2022/09/07 07:08:35;;;;;;;18.63;14.50;;;18.30;99.90;;;;;;5012408;28;20133;-82
2022/09/07 07:11:10;;;;;;;16.30;14.13;;;18.30;99.90;;;;;;5012165;28;20112;-82
2022/09/07 07:13:36;;;;;;;13.82;11.27;;;18.30;99.90;;;;;;4994853;28;20078;-83
2022/09/07 07:16:11;;;;;;;20.40;14.77;;;18.30;99.90;;;;;;5012518;28;20115;-83
2022/09/07 07:18:37;;;;;;;17.48;13.40;;;18.30;99.90;;;;;;4994219;28;20117;-82
2022/09/07 07:21:13;;;;;;;20.48;14.57;;;18.30;99.90;;;;;;4995108;28;20046;-82
2022/09/07 07:23:40;;;;;;;22.15;15.13;;;18.30;99.90;;;;;;4990989;28;20058;-83
2022/09/07 07:26:12;;;;;;;20.13;15.23;;;18.20;99.90;;;;;;4995098;28;20133;-84
2022/09/07 07:28:38;;;;;;;20.13;14.02;;;18.30;99.90;;;;;;4996032;28;20477;-83
2022/09/07 07:31:05;;;;;;;17.30;14.35;;;18.30;99.90;;;;;;4995210;28;20077;-82
2022/09/07 07:33:33;;;;;;;19.55;15.27;;;18.30;99.90;;;;;;4996003;28;20066;-81
2022/09/07 07:36:11;;;;;;;17.55;15.23;;;18.30;99.90;;;;;;4994876;28;20056;-74
2022/09/07 07:38:39;;;;;;;20.40;15.68;;;18.30;99.90;;;;;;4996143;28;20052;-74
2022/09/07 07:41:05;;;;;;;17.70;15.13;;;18.30;99.90;;;;;;4996230;28;20054;-74
2022/09/07 07:43:30;;;;;;;20.15;14.57;;;18.30;99.90;;;;;;4996102;28;20053;-75
2022/09/07 07:45:58;;;;;;;23.27;15.75;;;18.30;99.90;;;;;;4996455;28;20073;-75
2022/09/07 07:48:24;;;;;;;19.05;14.43;;;18.40;99.90;;;;;;4996460;28;20169;-75
2022/09/07 07:51:17;;;;;;;19.13;14.98;;;18.40;99.90;;;;;;4996210;28;20050;-75
2022/09/07 07:53:43;;;;;;;20.25;14.80;;;18.40;99.90;;;;;;4993832;28;20200;-75
2022/09/07 07:56:10;;;;;;;19.27;14.50;;;18.50;99.90;;;;;;4996709;28;20124;-74
2022/09/07 07:58:37;;;;;;;18.27;15.75;;;18.50;99.90;;;;;;4996522;28;20050;-78
2022/09/07 08:01:06;;;;;;;18.70;14.45;;;18.50;99.90;;;;;;4995927;28;20060;-77
2022/09/07 08:03:35;;;;;;;20.05;15.60;;;18.60;99.90;;;;;;4995749;28;20041;-78
2022/09/07 08:06:06;;;;;;;20.30;17.17;;;18.60;99.90;;;;;;4995772;28;20046;-78
2022/09/07 08:08:34;;;;;;;21.02;16.20;;;18.70;99.90;;;;;;4995879;28;20085;-78
2022/09/07 08:11:07;;;;;;;20.05;15.20;;;18.70;99.90;;;;;;4996291;28;20039;-78
2022/09/07 08:13:36;;;;;;;;;;;18.70;99.90;;;;;;4996731;28;20038;-78
2022/09/07 08:16:04;;;;;;;19.45;15.55;;;18.80;99.90;;;;;;4995959;28;19992;-77
2022/09/07 08:18:31;;;;;;;18.83;15.68;;;18.90;99.90;;;;;;4995549;28;20072;-78
2022/09/07 08:21:01;;;;;;;18.10;15.90;;;19.00;99.90;;;;;;4996403;28;20050;-78
2022/09/07 08:23:27;;;;;;;21.42;17.17;;;19.10;99.90;;;;;;5010813;28;20049;-78
2022/09/07 08:25:55;;;;;;;22.33;17.20;;;19.20;99.90;;;;;;5015742;28;20463;-78
2022/09/07 08:28:22;;;;;;;26.35;16.73;;;19.20;99.90;;;;;;5015103;28;20054;-77
2022/09/07 08:30:48;;;;;;;21.92;16.80;;;19.30;99.90;;;;;;5015651;28;20050;-78
2022/09/07 08:33:14;;;;;;;23.23;17.65;;;19.30;99.90;;;;;;5015118;28;20466;-77
2022/09/07 08:35:39;;;;;;;20.80;16.58;;;19.40;99.90;;;;;;4997472;28;20053;-78
2022/09/07 08:38:05;;;;;;;20.55;17.35;;;19.50;99.90;;;;;;5014846;28;20050;-77
2022/09/07 08:40:34;;;;;;;21.70;16.92;;;19.60;99.90;;;;;;5014976;28;20042;-77
2022/09/07 08:43:12;;;;;;;23.88;16.90;;;19.70;99.90;;;;;;4998241;28;20046;-78
2022/09/07 08:45:56;;;;;;;23.20;16.73;;;19.80;99.90;;;;;;5014950;28;20065;-78
2022/09/07 08:48:29;;;;;;;22.13;16.80;;;19.80;99.90;;;;;;5015231;28;20076;-78
2022/09/07 08:51:15;;;;;;;21.60;17.17;;;19.90;99.90;;;;;;5014758;28;20042;-78
2022/09/07 08:53:45;;;;;;;21.80;17.50;;;19.90;99.90;;;;;;5015119;28;20129;-78
2022/09/07 08:56:22;;;;;;;18.98;16.85;;;19.90;99.90;;;;;;5015032;28;20136;-78
2022/09/07 08:58:52;;;;;;;19.27;15.23;;;19.90;99.90;;;;;;5014564;28;20061;-78
2022/09/07 09:01:32;;;;;;;23.50;17.15;;;20.00;99.90;;;;;;5014561;28;20050;-78
2022/09/07 09:03:59;;;;;;;20.42;16.35;;;20.10;99.90;;;;;;4997798;28;20417;-78
2022/09/07 09:06:33;;;;;;;18.75;15.23;;;20.10;99.90;;;;;;5013788;28;20061;-78
2022/09/07 09:09:26;;;;;;;21.38;17.20;;;20.20;99.90;;;;;;5014815;28;20133;-78
2022/09/07 09:12:10;;;;;;;20.40;14.23;;;20.20;99.90;;;;;;5014879;28;20053;-78
2022/09/07 09:14:42;;;;;;;20.42;16.00;;;20.30;99.90;;;;;;5014368;28;20107;-78
2022/09/07 09:17:28;;;;;;;21.35;16.13;;;20.40;99.90;;;;;;5014344;28;20141;-78
2022/09/07 09:20:12;;;;;;;21.80;16.20;;;20.40;99.90;;;;;;5014284;28;20038;-78
2022/09/07 09:22:38;;;;;;;18.63;14.88;;;20.30;99.90;;;;;;5014602;28;20111;-78
2022/09/07 09:25:24;;;;;;;22.20;16.85;;;20.20;99.90;;;;;;5014172;28;20049;-78
2022/09/07 09:27:49;;;;;;;19.33;14.07;;;20.10;99.90;;;;;;5014395;28;20061;-78
2022/09/07 09:30:21;;;;;;;19.10;15.98;;;20.40;99.90;;;;;;5014116;28;20049;-78
2022/09/07 09:32:49;;;;;;;18.17;12.63;;;20.70;99.90;;;;;;5014244;28;20057;-78
2022/09/07 09:35:33;;;;;;;20.17;16.33;;;20.90;99.90;;;;;;5014054;28;20064;-78
2022/09/07 09:37:58;;;;;;;21.60;14.70;;;21.10;99.90;;;;;;5014062;28;20054;-78
2022/09/07 09:40:32;;;;;;;21.83;16.25;;;21.30;99.90;;;;;;5013548;28;20045;-78
2022/09/07 09:43:02;;;;;;;19.52;14.98;;;21.10;99.90;;;;;;5014013;28;20060;-78
2022/09/07 09:45:41;;;;;;;17.08;12.73;;;21.20;99.90;;;;;;5013838;28;20046;-78
2022/09/07 09:48:17;;;;;;;23.63;15.07;;;21.20;99.90;;;;;;5013855;28;20042;-78
2022/09/07 09:50:51;;;;;;;14.20;12.35;;;21.20;99.90;;;;;;5013754;28;20128;-78
2022/09/07 09:53:31;;;;;;;16.05;11.57;;;21.40;99.90;;;;;;5014238;28;20065;-78
2022/09/07 09:55:59;;;;;;;13.63;10.88;;;22.30;99.90;;;;;;5014243;28;20460;-78
2022/09/07 09:58:40;;;;;;;11.95;10.13;;;23.30;99.90;;;;;;5013835;28;20050;-79
2022/09/07 10:01:21;;;;;;;12.63;10.75;;;23.10;99.90;;;;;;5013528;28;20053;-78
2022/09/07 10:03:47;;;;;;;11.00;8.75;;;23.10;99.90;;;;;;5013817;28;20382;-78
2022/09/07 10:06:17;;;;;;;12.15;9.75;;;23.30;99.90;;;;;;5014058;28;20049;-78
2022/09/07 10:09:03;;;;;;;11.38;8.90;;;23.30;99.90;;;;;;5013232;28;20089;-78
2022/09/07 10:11:43;;;;;;;13.15;9.40;;;23.50;99.90;;;;;;5013462;28;20064;-78
2022/09/07 10:14:26;;;;;;;11.32;9.20;;;24.00;99.90;;;;;;5013614;28;20041;-77
2022/09/07 10:16:52;;;;;;;9.75;8.18;;;23.80;99.90;;;;;;5013304;28;20060;-78
2022/09/07 10:19:35;;;;;;;11.07;9.85;;;23.60;99.90;;;;;;5013151;28;20045;-78
2022/09/07 10:22:04;;;;;;;10.75;8.75;;;23.30;99.90;;;;;;5013629;28;20058;-78
2022/09/07 10:24:39;;;;;;;8.27;6.68;;;23.00;99.90;;;;;;5013150;28;20050;-78
2022/09/07 10:27:27;;;;;;;7.60;6.53;;;23.40;99.90;;;;;;5013290;28;20042;-78
2022/09/07 10:29:53;;;;;;;6.78;6.03;;;24.70;99.90;;;;;;5006696;28;20141;-78
2022/09/07 10:32:30;;;;;;;10.32;6.78;;;25.60;99.90;;;;;;5013015;28;20120;-78
2022/09/07 10:35:16;;;;;;;8.35;7.55;;;26.10;99.90;;;;;;5013325;28;20046;-78
2022/09/07 10:38:03;;;;;;;7.80;6.53;;;25.80;99.90;;;;;;5013051;28;20477;-78
2022/09/07 10:40:33;;;;;;;6.22;5.60;;;25.80;99.90;;;;;;5012805;28;20053;-78
2022/09/07 10:43:02;;;;;;;5.95;5.35;;;26.00;99.90;;;;;;4995225;28;20041;-78
2022/09/07 10:45:45;;;;;;;6.35;5.47;;;26.00;99.90;;;;;;5012033;28;20045;-78
2022/09/07 10:48:18;;;;;;;9.00;5.57;;;25.70;99.90;;;;;;5013120;28;20050;-79
2022/09/07 10:50:50;;;;;;;5.85;4.65;;;26.00;99.90;;;;;;5012655;28;20060;-79
2022/09/07 10:53:51;;;;;;;8.67;5.40;;;26.00;99.90;;;;;;5012715;28;20077;-79
2022/09/07 10:56:32;;;;;;;6.32;5.32;;;25.70;99.90;;;;;;4988038;28;20342;-79
2022/09/07 10:59:00;;;;;;;6.38;5.40;;;25.80;99.90;;;;;;5012038;28;20077;-78
2022/09/07 11:01:54;;;;;;;7.15;5.47;;;25.70;99.90;;;;;;5012481;28;20054;-79
2022/09/07 11:04:52;;;;;;;6.20;5.63;;;25.40;99.90;;;;;;5012431;28;20169;-79
2022/09/07 11:07:35;;;;;;;7.50;5.95;;;25.20;99.90;;;;;;5002129;28;20054;-79
2022/09/07 11:10:27;;;;;;;4.65;4.22;;;24.90;99.90;;;;;;5012831;28;20429;-80
2022/09/07 11:12:58;;;;;;;4.95;4.43;;;24.70;99.90;;;;;;5012561;28;20503;-75
2022/09/07 11:15:25;;;;;;;5.05;4.53;;;24.90;99.90;;;;;;5013193;28;20054;-74
2022/09/07 11:18:10;;;;;;;4.90;4.32;;;24.70;99.90;;;;;;5012934;28;20099;-74
2022/09/07 11:20:53;;;;;;;6.45;5.03;;;24.70;99.90;;;;;;5012493;28;20054;-74
2022/09/07 11:23:45;;;;;;;5.55;4.32;;;24.60;99.90;;;;;;5012557;28;20438;-75
2022/09/07 11:26:46;;;;;;;6.28;4.90;;;24.60;99.90;;;;;;5012989;28;20073;-74
2022/09/07 11:29:32;;;;;;;6.25;5.20;;;24.40;99.90;;;;;;5009383;28;20072;-74
2022/09/07 11:32:01;;;;;;;6.53;5.60;;;24.40;99.90;;;;;;5012410;28;20125;-75
2022/09/07 11:34:27;;;;;;;6.43;4.93;;;24.40;99.90;;;;;;5012715;28;20046;-75
2022/09/07 11:37:05;;;;;;;5.20;3.80;;;24.20;99.90;;;;;;4995402;28;20529;-74
2022/09/07 11:39:43;;;;;;;5.07;3.80;;;24.20;99.90;;;;;;5012450;28;20088;-75
2022/09/07 11:42:29;;;;;;;4.97;4.20;;;24.20;99.90;;;;;;5012523;28;20057;-74
2022/09/07 11:45:16;;;;;;;4.65;3.67;;;24.10;99.90;;;;;;5012556;28;20130;-74
2022/09/07 11:47:52;;;;;;;3.67;3.33;;;24.20;99.90;;;;;;5012219;28;20437;-75
2022/09/07 11:50:22;;;;;;;3.50;3.20;;;24.30;99.90;;;;;;5012532;28;20172;-74
2022/09/07 11:53:03;;;;;;;4.10;3.70;;;24.40;99.90;;;;;;5011972;28;20057;-74
2022/09/07 11:55:34;;;;;;;4.53;3.70;;;24.50;99.90;;;;;;5012526;28;20058;-74
2022/09/07 11:58:33;;;;;;;5.50;3.50;;;24.70;99.90;;;;;;5011964;28;20441;-74
2022/09/07 12:01:20;;;;;;;6.30;3.78;;;25.00;99.90;;;;;;5012266;28;20042;-75
2022/09/07 12:04:15;;;;;;;3.40;3.03;;;25.00;99.90;;;;;;5012202;28;20116;-74
2022/09/07 12:06:55;;;;;;;4.93;3.67;;;25.00;99.90;;;;;;5012068;28;20052;-74
2022/09/07 12:09:42;;;;;;;5.03;2.53;;;24.90;99.90;;;;;;5011888;28;20041;-75
2022/09/07 12:12:45;;;;;;;2.20;2.00;;;25.00;98.50;;;;;;5015255;28;20053;-75
2022/09/07 12:15:42;;;;;;;3.35;2.30;;;25.20;98.80;;;;;;5015081;28;20426;-75
2022/09/07 12:18:48;;;;;;;4.75;2.85;;;25.40;99.90;;;;;;5015301;28;20049;-75
2022/09/07 12:21:32;;;;;;;2.50;2.30;;;25.40;99.90;;;;;;5015294;28;20118;-75
2022/09/07 12:23:58;;;;;;;2.22;2.13;;;25.40;99.90;;;;;;5015430;28;20434;-75
2022/09/07 12:26:33;;;;;;;2.67;2.47;;;25.40;99.90;;;;;;5015093;28;20119;-75
2022/09/07 12:28:58;;;;;;;2.75;2.50;;;25.50;99.90;;;;;;5015584;28;20050;-75
2022/09/07 12:31:44;;;;;;;2.58;2.38;;;25.50;99.90;;;;;;5015087;28;20529;-75
2022/09/07 12:34:28;;;;;;;3.33;2.72;;;25.40;98.60;;;;;;5014799;28;20049;-75
2022/09/07 12:36:54;;;;;;;2.65;2.42;;;25.50;99.90;;;;;;5015052;28;20045;-75
2022/09/07 12:39:31;;;;;;;4.70;2.25;;;25.60;99.90;;;;;;5015340;28;20049;-76
2022/09/07 12:42:06;;;;;;;2.85;1.80;;;25.90;99.90;;;;;;5015290;28;20053;-75
2022/09/07 12:44:34;;;;;;;3.55;2.67;;;26.00;99.90;;;;;;5014750;28;20041;-75
2022/09/07 12:47:17;;;;;;;2.95;2.20;;;26.00;99.90;;;;;;5014639;28;20056;-75
2022/09/07 12:49:58;;;;;;;4.40;2.30;;;25.90;94.70;;;;;;4997500;28;20389;-75
2022/09/07 12:52:24;;;;;;;2.35;2.15;;;25.80;99.90;;;;;;5014974;28;20060;-76
2022/09/07 12:55:11;;;;;;;2.00;1.80;;;25.80;99.90;;;;;;5014245;28;20045;-76
2022/09/07 12:58:10;;;;;;;2.10;1.90;;;25.90;99.90;;;;;;5014689;28;20116;-75
2022/09/07 13:00:36;;;;;;;2.08;1.85;;;25.90;99.90;;;;;;5014169;28;20054;-75
2022/09/07 13:03:40;;;;;;;1.98;1.77;;;25.90;99.90;;;;;;5014130;28;20410;-75
2022/09/07 13:06:18;;;;;;;1.90;1.58;;;25.90;98.00;;;;;;5014176;28;20129;-75